Time;durP1;ratioP1;P1;durP2;ratioP2;P2;SDS_P1;SDS_P2;PMS_P1;PMS_P2;Temp;Humidity;BMP_temperature;BMP_pressure;BME280_temperature;BME280_humidity;BME280_pressure;Samples;Min_cycle;Max_cycle;Signal;HPM_P1;HPM_P2
2021/01/21 05:01:08;;;;;;;17.48;9.77;;;;;;;4.91;64.56;98671.28;5832917;23;20059;-61
2021/01/21 05:03:33;;;;;;;17.83;10.95;;;;;;;4.96;64.05;98662.63;4868947;29;20185;-76
2021/01/21 05:06:19;;;;;;;18.05;10.48;;;;;;;4.67;64.49;98658.75;4877510;29;20051;-76
2021/01/21 05:08:45;;;;;;;20.27;10.73;;;;;;;4.75;68.09;98653.09;4859855;29;20120;-76
2021/01/21 05:11:22;;;;;;;17.35;10.48;;;;;;;4.49;65.47;98658.69;4883628;29;20094;-76
2021/01/21 05:14:17;;;;;;;20.27;10.80;;;;;;;4.42;65.90;98661.41;4859439;29;20049;-76
2021/01/21 05:17:01;;;;;;;19.63;12.32;;;;;;;4.43;65.67;98667.59;4894467;29;20429;-76
2021/01/21 05:19:51;;;;;;;19.75;11.95;;;;;;;4.63;66.67;98677.09;4881857;29;20043;-76
2021/01/21 05:22:36;;;;;;;20.52;11.30;;;;;;;4.47;67.66;98691.03;4897754;29;20127;-76
2021/01/21 05:25:20;;;;;;;20.83;12.23;;;;;;;5.30;74.38;98698.75;4893942;29;20047;-77
2021/01/21 05:28:06;;;;;;;20.90;12.40;;;;;;;4.28;66.94;98695.44;4882658;29;20258;-76
2021/01/21 05:30:58;;;;;;;23.30;11.68;;;;;;;4.13;67.66;98694.94;4880168;29;20044;-77
2021/01/21 05:33:56;;;;;;;20.15;10.88;;;;;;;4.15;68.21;98684.03;4905698;29;20040;-76
2021/01/21 05:36:43;;;;;;;19.27;11.57;;;;;;;4.04;68.04;98693.53;4906490;29;20110;-76
2021/01/21 05:39:16;;;;;;;20.17;11.38;;;;;;;4.04;68.18;98684.72;4895812;29;20043;-76
2021/01/21 05:42:12;;;;;;;20.25;11.73;;;;;;;4.07;68.48;98676.25;4908372;29;20357;-76
2021/01/21 05:44:45;;;;;;;18.70;11.50;;;;;;;3.95;68.40;98682.28;4877559;29;20044;-76
2021/01/21 05:47:22;;;;;;;20.33;11.75;;;;;;;4.19;70.68;98671.84;4884148;29;20040;-76
2021/01/21 05:49:51;;;;;;;21.00;11.80;;;;;;;4.22;71.49;98669.59;4897952;29;20179;-76
2021/01/21 05:52:19;;;;;;;18.98;11.77;;;;;;;4.22;69.31;98671.44;4902171;29;20055;-77
2021/01/21 05:54:46;;;;;;;26.30;13.10;;;;;;;4.52;72.53;98672.44;4900105;29;20040;-77
2021/01/21 05:57:22;;;;;;;17.95;11.68;;;;;;;4.34;67.94;98678.56;4889519;29;20045;-76
2021/01/21 05:59:49;;;;;;;23.10;13.48;;;;;;;4.17;68.26;98668.56;4874713;29;20288;-77
2021/01/21 06:02:24;;;;;;;20.70;11.43;;;;;;;5.42;72.97;98668.28;4896653;29;20046;-76
2021/01/21 06:05:00;;;;;;;22.60;13.40;;;;;;;4.42;67.07;98664.09;4912383;29;20039;-76
2021/01/21 06:07:30;;;;;;;23.35;12.52;;;;;;;4.30;68.13;98665.81;4911993;29;20043;-77
2021/01/21 06:10:00;;;;;;;23.80;13.52;;;;;;;4.18;68.02;98664.88;4911690;29;20040;-77
2021/01/21 06:12:27;;;;;;;20.20;12.45;;;;;;;4.44;68.22;98666.53;4895863;29;20040;-76
2021/01/21 06:15:01;;;;;;;20.10;12.85;;;;;;;4.72;68.04;98664.28;4881080;29;20164;-77
2021/01/21 06:17:27;;;;;;;23.33;14.90;;;;;;;4.69;72.43;98672.72;4895446;29;20069;-76
2021/01/21 06:20:22;;;;;;;23.75;14.02;;;;;;;4.50;68.62;98668.38;4894697;29;20283;-77
2021/01/21 06:22:55;;;;;;;;;;;;;;;4.35;68.14;98672.16;4896991;29;20505;-77
2021/01/21 06:25:21;;;;;;;31.30;14.40;;;;;;;4.40;72.12;98676.03;4896387;29;19918;-76
2021/01/21 06:27:47;;;;;;;23.27;13.88;;;;;;;5.15;74.43;98666.13;4908064;29;20046;-76
2021/01/21 06:30:16;;;;;;;22.58;13.90;;;;;;;4.71;70.75;98658.09;4896616;29;20047;-76
2021/01/21 06:32:48;;;;;;;25.17;14.57;;;;;;;5.11;66.47;98663.06;4894191;29;20107;-76
2021/01/21 06:35:18;;;;;;;26.73;15.25;;;;;;;4.58;67.51;98662.75;4906133;29;20263;-77
2021/01/21 06:37:49;;;;;;;23.58;15.68;;;;;;;4.53;67.58;98650.00;4893634;29;20108;-76
2021/01/21 06:40:16;;;;;;;24.80;15.32;;;;;;;4.55;67.00;98647.94;4903408;29;20139;-77
2021/01/21 06:42:54;;;;;;;26.40;16.58;;;;;;;4.42;67.60;98647.22;4897954;29;20059;-76
2021/01/21 06:45:20;;;;;;;26.55;16.55;;;;;;;4.28;67.88;98644.63;4881673;29;20116;-75
2021/01/21 06:47:45;;;;;;;24.70;15.23;;;;;;;4.22;67.68;98634.81;4888668;29;20044;-75
2021/01/21 06:50:12;;;;;;;26.13;14.85;;;;;;;3.98;69.02;98643.59;4899391;29;20040;-76
2021/01/21 06:52:39;;;;;;;27.38;16.13;;;;;;;5.56;76.64;98636.78;4895081;29;20050;-76
2021/01/21 06:55:08;;;;;;;26.35;16.90;;;;;;;4.33;67.66;98626.09;4875821;29;20036;-76
2021/01/21 06:57:33;;;;;;;29.05;17.00;;;;;;;4.01;68.41;98629.81;4880868;29;20048;-76
2021/01/21 07:00:09;;;;;;;31.02;17.48;;;;;;;3.96;70.55;98622.44;4900165;29;20087;-76
2021/01/21 07:02:52;;;;;;;29.08;17.10;;;;;;;4.04;71.08;98629.34;4876747;29;20071;-76
2021/01/21 07:05:21;;;;;;;30.85;18.00;;;;;;;3.79;69.44;98628.50;4880639;29;20086;-78
2021/01/21 07:07:56;;;;;;;27.20;15.95;;;;;;;3.71;69.58;98634.09;4912616;29;20040;-76
2021/01/21 07:10:45;;;;;;;26.48;16.48;;;;;;;3.94;71.99;98626.34;4892789;29;20047;-76
2021/01/21 07:13:15;;;;;;;26.50;15.48;;;;;;;4.03;69.39;98635.78;4910877;29;20143;-77
2021/01/21 07:15:44;;;;;;;25.88;16.25;;;;;;;3.81;70.50;98631.75;4897545;29;20039;-76
2021/01/21 07:18:18;;;;;;;29.83;15.95;;;;;;;3.57;71.00;98633.34;4874815;29;20044;-75
2021/01/21 07:21:16;;;;;;;26.02;15.55;;;;;;;3.54;70.64;98633.78;4874646;29;20073;-76
2021/01/21 07:23:42;;;;;;;23.70;14.07;;;;;;;4.52;74.00;98643.00;4887550;29;20036;-76
2021/01/21 07:26:55;;;;;;;27.15;15.98;;;;;;;4.40;71.62;98646.59;4890394;29;20075;-76
2021/01/21 07:29:21;;;;;;;29.23;15.38;;;;;;;4.28;70.93;98639.28;4814694;29;20042;-76
2021/01/21 07:31:52;;;;;;;24.77;14.10;;;;;;;6.19;71.51;98641.75;4898229;29;20135;-76
2021/01/21 07:34:30;;;;;;;30.58;17.38;;;;;;;4.63;68.35;98661.03;4890308;29;20072;-77
2021/01/21 07:37:35;;;;;;;25.65;14.48;;;;;;;4.87;68.97;98650.53;4892195;29;20104;-76
2021/01/21 07:40:12;;;;;;;22.95;12.70;;;;;;;4.72;69.73;98646.34;4851606;29;20123;-76
2021/01/21 07:42:38;;;;;;;26.15;14.77;;;;;;;3.94;71.96;98648.56;4912113;29;20036;-75
2021/01/21 07:45:06;;;;;;;31.85;16.08;;;;;;;5.32;67.17;98643.88;4897613;29;20058;-76
2021/01/21 07:47:33;;;;;;;28.48;16.73;;;;;;;4.18;70.55;98636.25;4897605;29;20087;-75
2021/01/21 07:50:16;;;;;;;30.23;17.33;;;;;;;4.23;71.66;98636.44;4880566;29;20450;-78
2021/01/21 07:52:46;;;;;;;30.10;18.35;;;;;;;3.98;75.07;98632.91;4883487;29;20126;-76
2021/01/21 07:55:12;;;;;;;29.83;16.92;;;;;;;3.80;70.96;98635.50;4867343;29;20047;-76
2021/01/21 07:57:39;;;;;;;27.98;15.60;;;;;;;4.37;75.77;98629.16;4886151;29;20055;-75
2021/01/21 08:00:08;;;;;;;26.63;15.45;;;;;;;4.25;71.77;98620.19;4881236;29;20455;-76
2021/01/21 08:02:48;;;;;;;26.17;15.85;;;;;;;3.94;70.29;98618.31;4878957;29;20148;-76
2021/01/21 08:05:15;;;;;;;26.20;14.98;;;;;;;4.79;74.82;98618.69;4896407;29;20110;-76
2021/01/21 08:07:48;;;;;;;24.30;14.25;;;;;;;5.02;74.67;98617.00;4897194;29;20250;-75
2021/01/21 08:10:20;;;;;;;22.15;13.68;;;;;;;5.58;73.50;98607.88;4892668;29;20095;-75
2021/01/21 08:13:01;;;;;;;22.52;13.73;;;;;;;5.81;70.30;98610.66;4892966;29;20055;-76
2021/01/21 08:15:28;;;;;;;26.98;14.73;;;;;;;5.95;73.12;98611.34;4901030;29;20876;-76
2021/01/21 08:17:54;;;;;;;25.30;14.77;;;;;;;5.77;68.83;98616.69;4899825;29;20325;-76
2021/01/21 08:20:26;;;;;;;23.63;13.77;;;;;;;5.13;70.00;98625.34;4886226;29;20044;-75
2021/01/21 08:23:05;;;;;;;23.45;14.13;;;;;;;4.68;72.76;98617.56;4888762;29;20153;-76
2021/01/21 08:25:49;;;;;;;22.17;12.60;;;;;;;6.22;66.82;98629.75;4867300;29;20102;-76
2021/01/21 08:28:17;;;;;;;21.65;13.13;;;;;;;6.20;70.47;98621.91;4877437;29;20040;-75
2021/01/21 08:30:43;;;;;;;21.80;14.25;;;;;;;5.69;68.25;98625.88;4878298;29;20041;-76
2021/01/21 08:33:17;;;;;;;23.33;12.93;;;;;;;6.56;72.47;98612.88;4890065;29;20043;-77
2021/01/21 08:35:47;;;;;;;25.92;13.75;;;;;;;5.95;68.26;98626.63;4878270;29;20056;-75
2021/01/21 08:38:16;;;;;;;22.85;12.90;;;;;;;6.96;65.90;98621.03;4894111;29;20100;-75
2021/01/21 08:40:42;;;;;;;24.00;13.25;;;;;;;6.96;70.54;98625.59;4899106;29;20032;-76
2021/01/21 08:43:09;;;;;;;19.80;11.43;;;;;;;7.62;67.65;98614.34;4913010;29;20051;-76
2021/01/21 08:45:35;;;;;;;20.10;12.98;;;;;;;5.71;66.43;98631.03;4899876;29;20036;-75
2021/01/21 08:48:00;;;;;;;20.38;12.65;;;;;;;5.95;68.39;98618.56;4911316;29;20024;-76
2021/01/21 08:50:35;;;;;;;19.23;10.98;;;;;;;5.54;68.85;98611.25;4905085;29;20071;-76
2021/01/21 08:53:10;;;;;;;21.60;12.60;;;;;;;5.68;65.26;98608.16;4909067;29;20040;-76
2021/01/21 08:55:45;;;;;;;24.15;12.98;;;;;;;6.40;67.64;98592.88;4912526;29;20111;-76
2021/01/21 08:58:16;;;;;;;22.73;12.98;;;;;;;7.11;69.03;98594.50;4912471;29;20469;-76
2021/01/21 09:01:01;;;;;;;18.83;10.98;;;;;;;7.62;66.15;98609.81;4896398;29;20035;-76
2021/01/21 09:03:44;;;;;;;18.83;11.98;;;;;;;7.05;64.67;98611.56;4896704;29;20572;-76
2021/01/21 09:06:11;;;;;;;20.88;12.63;;;;;;;7.25;65.97;98624.66;4911715;29;20087;-76
2021/01/21 09:08:51;;;;;;;18.65;11.70;;;;;;;7.10;65.74;98611.69;4895838;29;20032;-76
2021/01/21 09:11:33;;;;;;;27.83;12.52;;;;;;;6.29;62.81;98617.84;4896004;29;20044;-76
2021/01/21 09:14:01;;;;;;;23.83;11.93;;;;;;;6.44;72.30;98622.78;4911590;29;20130;-77
2021/01/21 09:16:47;;;;;;;20.98;13.95;;;;;;;6.15;68.43;98632.50;4912185;29;20099;-76
2021/01/21 09:19:14;;;;;;;21.98;13.82;;;;;;;6.74;68.35;98623.50;4911410;29;20497;-76
2021/01/21 09:22:00;;;;;;;26.13;14.73;;;;;;;6.14;64.22;98629.00;4911299;29;20059;-76
2021/01/21 09:24:26;;;;;;;24.30;15.05;;;;;;;5.81;66.04;98624.06;4896080;29;20067;-77
2021/01/21 09:27:28;;;;;;;23.02;13.32;;;;;;;6.76;66.27;98616.03;4896125;29;20408;-76
2021/01/21 09:30:07;;;;;;;22.65;11.98;;;;;;;7.51;69.03;98617.91;4814007;29;20057;-76
2021/01/21 09:32:33;;;;;;;18.88;11.27;;;;;;;7.54;69.27;98612.88;4882015;29;20040;-76
2021/01/21 09:35:01;;;;;;;25.35;15.18;;;;;;;7.55;68.42;98601.06;4892381;29;20040;-76
2021/01/21 09:37:29;;;;;;;19.98;13.02;;;;;;;7.81;67.02;98593.50;4893065;29;20087;-76
2021/01/21 09:39:55;;;;;;;20.63;13.10;;;;;;;7.25;64.43;98587.84;4895372;29;20054;-76
2021/01/21 09:42:21;;;;;;;23.58;14.55;;;;;;;6.36;67.92;98583.66;4911419;29;20046;-76
2021/01/21 09:44:47;;;;;;;23.92;13.32;;;;;;;6.31;63.91;98578.19;4911466;29;20036;-76
2021/01/21 09:47:12;;;;;;;19.52;13.00;;;;;;;7.13;68.59;98578.97;4911595;29;20059;-78
2021/01/21 09:49:41;;;;;;;21.92;13.30;;;;;;;6.85;64.40;98578.88;4911296;29;20428;-76
2021/01/21 09:52:06;;;;;;;22.25;12.57;;;;;;;7.20;67.33;98579.66;4894621;29;20067;-78
2021/01/21 09:54:32;;;;;;;18.30;11.13;;;;;;;7.43;66.37;98576.06;4895396;29;20516;-76
2021/01/21 09:56:58;;;;;;;17.85;10.82;;;;;;;7.46;62.23;98585.56;4911477;29;20043;-76
2021/01/21 09:59:24;;;;;;;17.15;11.57;;;;;;;6.80;64.72;98587.66;4896343;29;20130;-76
2021/01/21 10:01:50;;;;;;;22.08;12.85;;;;;;;7.13;62.87;98583.53;4895378;29;20572;-75
2021/01/21 10:04:16;;;;;;;22.35;13.00;;;;;;;6.19;62.63;98588.06;4911135;29;20048;-76
2021/01/21 10:06:41;;;;;;;18.58;12.07;;;;;;;6.36;62.89;98585.50;4911093;29;20043;-76
2021/01/21 10:09:07;;;;;;;19.50;11.60;;;;;;;6.20;63.77;98580.84;4910909;29;20138;-76
2021/01/21 10:11:33;;;;;;;21.63;12.43;;;;;;;6.24;68.33;98563.22;4910809;29;20046;-76
2021/01/21 10:14:00;;;;;;;25.65;12.63;;;;;;;6.46;69.48;98548.19;4895346;29;20031;-76
2021/01/21 10:16:27;;;;;;;25.00;15.00;;;;;;;6.25;66.23;98551.44;4895909;29;20040;-75
2021/01/21 10:18:53;;;;;;;23.65;13.32;;;;;;;6.07;66.63;98561.22;4911819;29;20039;-76
2021/01/21 10:21:18;;;;;;;24.65;14.90;;;;;;;5.58;65.21;98564.19;4911153;29;20050;-77
2021/01/21 10:23:44;;;;;;;22.65;13.93;;;;;;;6.44;69.70;98559.16;4896340;29;20043;-76
2021/01/21 10:26:09;;;;;;;23.35;13.43;;;;;;;5.49;65.36;98565.53;4895117;29;20040;-76
2021/01/21 10:28:35;;;;;;;26.23;15.65;;;;;;;5.31;65.54;98564.50;4894869;29;20122;-76
2021/01/21 10:31:00;;;;;;;21.98;13.32;;;;;;;5.14;65.31;98560.00;4895092;29;20172;-76
2021/01/21 10:33:26;;;;;;;20.25;13.15;;;;;;;4.96;66.63;98563.53;4901520;29;20040;-76
2021/01/21 10:35:51;;;;;;;22.40;13.93;;;;;;;4.89;66.70;98552.88;4908524;29;20067;-78
2021/01/21 10:38:17;;;;;;;20.60;13.45;;;;;;;5.11;65.86;98550.56;4892234;29;20651;-76
2021/01/21 10:40:42;;;;;;;23.13;13.35;;;;;;;5.05;66.49;98546.94;4906581;29;20040;-77
2021/01/21 10:43:08;;;;;;;21.08;12.43;;;;;;;5.13;65.39;98537.75;4908738;29;20121;-75
2021/01/21 10:45:34;;;;;;;17.77;11.50;;;;;;;5.36;64.82;98559.31;4905831;29;20139;-76
2021/01/21 10:47:59;;;;;;;19.95;11.43;;;;;;;5.53;64.37;98554.16;4890966;29;20123;-76
2021/01/21 10:50:25;;;;;;;18.63;10.55;;;;;;;5.82;67.77;98549.81;4902305;29;20413;-77
2021/01/21 10:52:50;;;;;;;16.52;10.30;;;;;;;5.64;63.28;98550.69;4908339;29;20451;-76
2021/01/21 10:55:16;;;;;;;16.77;10.68;;;;;;;5.47;63.98;98566.59;4902617;29;20035;-76
2021/01/21 10:57:41;;;;;;;17.60;11.10;;;;;;;5.62;63.01;98568.06;4902620;29;20540;-76
2021/01/21 11:00:07;;;;;;;15.88;11.05;;;;;;;5.63;63.08;98558.97;4907275;29;20047;-76
2021/01/21 11:02:32;;;;;;;24.33;13.25;;;;;;;5.57;63.49;98560.69;4896128;29;20497;-75
2021/01/21 11:04:58;;;;;;;19.48;11.07;;;;;;;5.69;62.71;98568.75;4898946;29;20039;-76
2021/01/21 11:07:23;;;;;;;16.77;10.07;;;;;;;5.73;62.38;98556.56;4898762;29;20071;-77
2021/01/21 11:09:49;;;;;;;18.15;11.10;;;;;;;5.68;65.46;98572.50;4895891;29;20037;-77
2021/01/21 11:12:16;;;;;;;17.00;10.02;;;;;;;5.62;62.84;98557.31;4895659;29;20081;-76
2021/01/21 11:14:42;;;;;;;18.38;10.07;;;;;;;5.67;62.98;98560.13;4879571;29;20039;-76
2021/01/21 11:17:08;;;;;;;17.35;9.35;;;;;;;5.79;62.88;98561.81;4879791;29;20040;-76
2021/01/21 11:19:33;;;;;;;16.65;9.43;;;;;;;5.81;62.38;98566.94;4895675;29;20123;-76
2021/01/21 11:21:59;;;;;;;17.65;8.88;;;;;;;5.81;61.02;98561.56;4894967;29;20056;-77
2021/01/21 11:24:24;;;;;;;13.93;8.88;;;;;;;6.43;64.00;98564.75;4886946;29;20051;-76
2021/01/21 11:26:50;;;;;;;15.30;8.13;;;;;;;6.77;66.39;98561.25;4913603;29;20042;-76
2021/01/21 11:29:15;;;;;;;14.95;8.85;;;;;;;6.41;59.39;98548.88;4915070;29;20389;-77
2021/01/21 11:31:41;;;;;;;15.60;9.15;;;;;;;6.14;60.38;98545.00;4902750;29;20047;-76
2021/01/21 11:34:06;;;;;;;15.73;8.57;;;;;;;6.63;62.21;98546.44;4911951;29;20040;-76
2021/01/21 11:36:32;;;;;;;16.23;8.57;;;;;;;6.30;59.33;98546.19;4897610;29;20497;-77
2021/01/21 11:38:57;;;;;;;15.43;8.82;;;;;;;6.67;59.47;98542.25;4897917;29;20130;-76
2021/01/21 11:41:23;;;;;;;13.68;8.70;;;;;;;6.42;59.23;98530.91;4897428;29;20087;-77
2021/01/21 11:43:48;;;;;;;20.67;9.20;;;;;;;6.63;58.80;98532.19;4895165;29;20063;-77
2021/01/21 11:46:14;;;;;;;13.90;7.30;;;;;;;7.27;64.47;98549.94;4895537;29;20104;-76
2021/01/21 11:48:39;;;;;;;15.82;9.00;;;;;;;7.34;59.69;98533.69;4910611;29;20473;-77
2021/01/21 11:51:05;;;;;;;13.82;8.85;;;;;;;7.23;60.42;98546.94;4898408;29;20083;-77
2021/01/21 11:53:31;;;;;;;14.20;9.20;;;;;;;7.46;56.49;98537.16;4909205;29;20036;-77
2021/01/21 11:55:57;;;;;;;15.15;9.27;;;;;;;7.17;56.84;98536.28;4901671;29;20040;-77
2021/01/21 11:58:22;;;;;;;17.65;8.80;;;;;;;7.47;58.10;98533.41;4911872;29;20040;-77
2021/01/21 12:00:48;;;;;;;14.13;8.57;;;;;;;7.69;58.01;98520.91;4896626;29;20137;-77
2021/01/21 12:03:13;;;;;;;16.05;9.57;;;;;;;7.86;63.69;98510.97;4898736;29;20044;-77
2021/01/21 12:05:39;;;;;;;15.80;9.65;;;;;;;8.04;63.20;98493.78;4877296;29;20517;-78
2021/01/21 12:08:05;;;;;;;20.10;11.35;;;;;;;7.37;57.24;98499.09;4893150;29;20043;-77
2021/01/21 12:10:31;;;;;;;19.15;11.10;;;;;;;7.44;61.44;98501.63;4885914;29;20035;-77
2021/01/21 12:12:56;;;;;;;19.55;11.18;;;;;;;7.35;57.75;98497.69;4913103;29;20529;-77
2021/01/21 12:15:22;;;;;;;21.23;11.75;;;;;;;7.77;64.14;98503.53;4912395;29;20060;-77
2021/01/21 12:17:47;;;;;;;21.90;10.82;;;;;;;7.78;58.83;98495.25;4897289;29;20074;-77
2021/01/21 12:20:13;;;;;;;15.55;10.50;;;;;;;7.30;57.38;98498.38;4913121;29;20050;-77
2021/01/21 12:22:41;;;;;;;18.98;11.15;;;;;;;7.43;57.73;98508.03;4896735;29;20044;-77
2021/01/21 12:25:07;;;;;;;20.98;13.43;;;;;;;7.62;62.87;98493.31;4897592;29;20051;-77
2021/01/21 12:27:35;;;;;;;22.67;12.43;;;;;;;8.24;61.37;98502.19;4896580;29;20505;-78
2021/01/21 12:30:01;;;;;;;20.65;13.25;;;;;;;8.45;57.08;98507.91;4895972;29;20390;-77
2021/01/21 12:32:31;;;;;;;22.73;14.05;;;;;;;7.68;58.91;98500.44;4913193;29;20043;-77
2021/01/21 12:34:56;;;;;;;25.77;15.57;;;;;;;7.31;55.65;98505.41;4912671;29;20054;-77
2021/01/21 12:37:21;;;;;;;23.88;14.48;;;;;;;7.07;56.42;98515.41;4911694;29;20052;-76
2021/01/21 12:39:47;;;;;;;24.08;14.50;;;;;;;7.42;63.11;98507.22;4912201;29;22289;-77
2021/01/21 12:42:13;;;;;;;25.23;16.38;;;;;;;7.05;59.75;98506.75;4912897;29;20468;-77
2021/01/21 12:44:40;;;;;;;25.58;14.93;;;;;;;7.56;62.98;98487.06;4896888;29;20043;-76
2021/01/21 12:47:06;;;;;;;23.60;14.27;;;;;;;6.69;58.72;98504.41;4912557;29;20247;-77
2021/01/21 12:49:31;;;;;;;22.77;14.80;;;;;;;6.98;58.45;98484.59;4912227;29;20086;-77
2021/01/21 12:51:57;;;;;;;28.20;15.35;;;;;;;6.79;58.51;98491.19;4913327;29;20079;-77
2021/01/21 12:54:22;;;;;;;27.17;16.63;;;;;;;6.75;58.75;98490.03;4912257;29;20039;-77
2021/01/21 12:56:48;;;;;;;27.88;15.90;;;;;;;6.48;60.10;98487.84;4908873;29;20051;-76
2021/01/21 12:59:15;;;;;;;26.80;16.30;;;;;;;6.92;58.51;98484.75;4912485;29;20406;-77
2021/01/21 13:01:41;;;;;;;29.38;16.83;;;;;;;6.63;58.86;98494.59;4895594;29;20036;-76
2021/01/21 13:04:06;;;;;;;33.63;17.95;;;;;;;7.13;66.52;98481.41;4912298;29;20050;-76
2021/01/21 13:06:33;;;;;;;25.92;15.80;;;;;;;7.86;64.96;98489.44;4885419;29;20036;-77
2021/01/21 13:08:58;;;;;;;30.48;17.08;;;;;;;7.50;63.89;98482.63;4890608;29;20044;-77
2021/01/21 13:11:24;;;;;;;28.40;16.83;;;;;;;7.45;61.03;98481.72;4903174;29;20091;-77
2021/01/21 13:13:49;;;;;;;27.30;16.70;;;;;;;7.98;59.89;98476.72;4909396;29;20416;-76
2021/01/21 13:16:15;;;;;;;28.25;15.70;;;;;;;8.45;63.90;98491.75;4911506;29;20067;-77
2021/01/21 13:18:40;;;;;;;27.38;16.80;;;;;;;8.11;63.89;98483.66;4911390;29;20040;-77
2021/01/21 13:21:06;;;;;;;36.30;17.08;;;;;;;7.01;58.56;98489.50;4911668;29;20187;-76
2021/01/21 13:23:32;;;;;;;29.08;16.63;;;;;;;7.70;63.44;98479.50;4896685;29;20036;-76
2021/01/21 13:25:57;;;;;;;28.40;13.90;;;;;;;7.09;60.19;98482.94;4912339;29;20054;-76
2021/01/21 13:28:23;;;;;;;29.98;16.65;;;;;;;6.93;62.17;98478.28;4896316;29;20043;-76
2021/01/21 13:30:48;;;;;;;25.92;13.05;;;;;;;6.82;61.88;98483.47;4909007;29;20335;-76
2021/01/21 13:33:14;;;;;;;28.85;14.98;;;;;;;7.58;62.63;98470.69;4877530;29;20048;-76
2021/01/21 13:35:39;;;;;;;28.38;16.08;;;;;;;7.23;61.34;98486.97;4877805;29;20055;-76
2021/01/21 13:38:05;;;;;;;29.70;15.50;;;;;;;6.76;62.23;98481.72;4922967;29;20184;-77
2021/01/21 13:40:30;;;;;;;26.27;15.07;;;;;;;6.94;63.54;98472.69;4900980;29;20421;-76
2021/01/21 13:42:57;;;;;;;31.55;15.35;;;;;;;6.82;58.46;98461.97;4896578;29;20525;-77
2021/01/21 13:45:24;;;;;;;29.15;15.20;;;;;;;7.18;67.03;98468.06;4890164;29;20051;-77
2021/01/21 13:47:50;;;;;;;32.78;16.90;;;;;;;6.67;60.15;98475.09;4890088;29;20048;-77
2021/01/21 13:50:15;;;;;;;34.53;18.10;;;;;;;6.50;62.26;98468.81;4881258;29;20048;-76
2021/01/21 13:52:41;;;;;;;36.05;17.65;;;;;;;6.11;61.31;98460.44;4896693;29;20076;-77
2021/01/21 13:55:07;;;;;;;31.73;17.55;;;;;;;6.12;63.26;98453.19;4877514;29;20043;-77
2021/01/21 13:57:32;;;;;;;30.67;16.48;;;;;;;6.47;65.26;98461.22;4887822;29;20068;-77
2021/01/21 13:59:58;;;;;;;32.75;17.17;;;;;;;6.58;61.00;98463.06;4896802;29;20042;-77
2021/01/21 14:02:23;;;;;;;36.00;17.45;;;;;;;6.24;63.52;98467.41;4911322;29;20131;-77
2021/01/21 14:04:49;;;;;;;25.65;14.65;;;;;;;6.58;66.54;98475.72;4895618;29;20043;-77
2021/01/21 14:07:14;;;;;;;30.38;15.68;;;;;;;6.88;66.47;98469.09;4896010;29;20135;-77
2021/01/21 14:09:40;;;;;;;30.08;18.83;;;;;;;6.02;61.04;98482.47;4895954;29;20027;-78
2021/01/21 14:12:05;;;;;;;30.80;17.67;;;;;;;6.06;61.97;98465.69;4912941;29;20051;-76
2021/01/21 14:14:31;;;;;;;31.10;17.27;;;;;;;6.60;61.12;98468.22;4911513;29;20036;-76
2021/01/21 14:16:56;;;;;;;36.42;19.80;;;;;;;5.79;62.52;98465.25;4896296;29;20047;-76
2021/01/21 14:19:22;;;;;;;37.25;17.58;;;;;;;6.14;62.84;98464.50;4894972;29;20054;-76
2021/01/21 14:21:48;;;;;;;27.52;15.65;;;;;;;6.62;64.59;98461.56;4910398;29;20054;-76
2021/01/21 14:24:14;;;;;;;30.42;16.58;;;;;;;6.33;64.42;98473.28;4911499;29;20071;-77
2021/01/21 14:26:40;;;;;;;32.17;18.90;;;;;;;6.02;62.27;98477.09;4895521;29;20074;-77
2021/01/21 14:29:07;;;;;;;33.17;16.30;;;;;;;6.89;68.76;98473.41;4894278;29;20103;-77
2021/01/21 14:31:34;;;;;;;35.47;17.60;;;;;;;6.15;65.15;98487.59;4893822;29;20509;-77
2021/01/21 14:34:00;;;;;;;32.75;16.50;;;;;;;6.70;66.05;98484.53;4895912;29;20039;-77
2021/01/21 14:36:25;;;;;;;32.33;17.50;;;;;;;6.40;67.23;98490.88;4911839;29;20059;-77
2021/01/21 14:39:03;;;;;;;32.78;18.23;;;;;;;6.40;62.88;98485.50;4911734;29;20044;-77
2021/01/21 14:41:29;;;;;;;36.20;16.67;;;;;;;6.54;64.88;98491.47;4907012;29;20040;-76
2021/01/21 14:43:55;;;;;;;36.75;20.50;;;;;;;7.22;66.15;98494.22;4897083;29;20043;-76
2021/01/21 14:46:20;;;;;;;37.00;19.75;;;;;;;6.49;62.54;98494.03;4898861;29;20114;-76
2021/01/21 14:48:46;;;;;;;32.30;15.55;;;;;;;7.47;66.35;98491.19;4897455;29;20614;-76
2021/01/21 14:51:11;;;;;;;35.92;19.90;;;;;;;6.27;60.80;98496.47;4898298;29;20059;-76
2021/01/21 14:53:37;;;;;;;34.08;19.38;;;;;;;6.02;61.60;98494.00;4898177;29;20500;-76
2021/01/21 14:56:02;;;;;;;34.58;17.95;;;;;;;5.89;62.89;98496.09;4898631;29;20505;-76
2021/01/21 14:58:28;;;;;;;31.35;17.45;;;;;;;6.70;68.92;98493.41;4915015;29;20531;-76
2021/01/21 15:00:53;;;;;;;32.35;18.08;;;;;;;7.28;68.47;98487.06;4898453;29;20083;-76
2021/01/21 15:03:19;;;;;;;29.75;17.27;;;;;;;5.97;65.55;98485.84;4898874;29;20036;-75
2021/01/21 15:05:44;;;;;;;36.88;19.92;;;;;;;5.86;63.84;98489.31;4914004;29;20464;-76
2021/01/21 15:08:10;;;;;;;32.35;19.05;;;;;;;5.87;62.69;98496.31;4911241;29;20522;-77
2021/01/21 15:10:35;;;;;;;28.63;16.38;;;;;;;5.55;63.08;98492.25;4897988;29;20036;-76
2021/01/21 15:13:02;;;;;;;34.05;17.92;;;;;;;5.80;63.67;98495.59;4898175;29;20040;-76
2021/01/21 15:15:27;;;;;;;32.60;15.68;;;;;;;5.64;63.80;98497.06;4914604;29;20107;-76
2021/01/21 15:17:52;;;;;;;36.00;17.55;;;;;;;5.72;64.39;98502.09;4898870;29;20138;-76
2021/01/21 15:20:18;;;;;;;29.70;17.45;;;;;;;6.65;68.69;98497.88;4913315;29;20058;-76
2021/01/21 15:22:44;;;;;;;23.83;13.07;;;;;;;6.02;63.69;98491.31;4913020;29;20191;-75
2021/01/21 15:25:10;;;;;;;28.00;15.57;;;;;;;5.25;63.31;98486.91;4898753;29;20103;-76
2021/01/21 15:27:35;;;;;;;27.27;14.73;;;;;;;6.16;64.47;98489.25;4911644;29;20509;-77
2021/01/21 15:30:01;;;;;;;32.88;17.00;;;;;;;6.41;65.49;98486.34;4912433;29;20051;-76
2021/01/21 15:32:26;;;;;;;30.13;13.38;;;;;;;6.27;62.31;98466.97;4914352;29;20122;-77
2021/01/21 15:34:52;;;;;;;30.38;16.25;;;;;;;5.75;61.75;98465.97;4913969;29;20501;-76
2021/01/21 15:37:18;;;;;;;25.73;14.40;;;;;;;6.62;66.41;98472.28;4913587;29;20050;-76
2021/01/21 15:39:44;;;;;;;29.67;15.75;;;;;;;5.77;61.92;98480.75;4913624;29;20039;-76
2021/01/21 15:42:10;;;;;;;30.20;16.33;;;;;;;5.38;62.79;98500.94;4913198;29;20036;-76
2021/01/21 15:44:39;;;;;;;29.52;15.40;;;;;;;5.60;65.02;98505.78;4897760;29;20043;-76
2021/01/21 15:47:05;;;;;;;31.88;17.00;;;;;;;5.88;64.87;98497.13;4913490;29;20505;-76
2021/01/21 15:49:30;;;;;;;34.90;16.67;;;;;;;5.58;63.33;98497.97;4909150;29;20032;-76
2021/01/21 15:51:56;;;;;;;29.98;15.05;;;;;;;5.79;65.04;98497.44;4879655;29;20455;-76
2021/01/21 15:54:21;;;;;;;33.50;16.25;;;;;;;5.32;65.80;98504.53;4879440;29;20177;-77
2021/01/21 15:56:47;;;;;;;31.00;14.85;;;;;;;6.01;68.41;98497.75;4894499;29;20044;-77
2021/01/21 15:59:16;;;;;;;30.98;15.75;;;;;;;5.90;64.84;98503.09;4893506;29;20106;-77
2021/01/21 16:01:49;;;;;;;31.45;17.30;;;;;;;5.46;63.69;98489.91;4901038;29;20036;-77
2021/01/21 16:04:15;;;;;;;33.13;15.65;;;;;;;6.23;70.33;98506.03;4913445;29;20047;-76
2021/01/21 16:06:41;;;;;;;31.40;17.55;;;;;;;6.26;65.21;98491.34;4913159;29;20038;-76
2021/01/21 16:09:07;;;;;;;34.60;17.77;;;;;;;6.36;64.49;98494.25;4912955;29;20044;-76
2021/01/21 16:11:33;;;;;;;33.20;17.90;;;;;;;7.05;64.54;98489.81;4898229;29;20410;-76
2021/01/21 16:13:59;;;;;;;28.90;16.45;;;;;;;6.84;63.86;98493.97;4913294;29;20123;-76
2021/01/21 16:16:24;;;;;;;29.58;15.90;;;;;;;5.44;64.16;98502.69;4913843;29;20304;-76
2021/01/21 16:18:49;;;;;;;25.42;12.18;;;;;;;5.78;71.20;98485.06;4897301;29;20477;-76
2021/01/21 16:21:15;;;;;;;28.63;15.32;;;;;;;5.85;68.70;98486.84;4912459;29;20071;-76
2021/01/21 16:23:41;;;;;;;33.58;16.67;;;;;;;5.27;65.80;98499.03;4912818;29;20036;-77
2021/01/21 16:26:12;;;;;;;27.58;15.73;;;;;;;6.99;69.83;98488.09;4912821;29;20122;-77
2021/01/21 16:28:41;;;;;;;24.95;14.95;;;;;;;7.12;64.92;98496.72;4896874;29;20071;-77
2021/01/21 16:31:10;;;;;;;30.55;16.35;;;;;;;6.36;68.13;98496.94;4912946;29;20404;-77
2021/01/21 16:33:35;;;;;;;26.02;14.35;;;;;;;6.26;66.54;98491.34;4912817;29;20455;-76
2021/01/21 16:36:02;;;;;;;27.10;13.93;;;;;;;6.21;68.92;98500.13;4912920;29;20131;-77